createdAt,value
2023-04-26T00:03:23.408Z,99541.22
2023-04-26T00:13:24.965Z,99538.41
2023-04-26T00:23:26.679Z,99538.97
2023-04-26T00:33:28.231Z,99536.47
2023-04-26T00:43:29.989Z,99534.13
2023-04-26T00:53:31.386Z,99531.00
2023-04-26T01:03:32.932Z,99521.47
2023-04-26T01:13:34.904Z,99530.06
2023-04-26T01:23:36.525Z,99539.63
2023-04-26T01:33:38.120Z,99537.13
2023-04-26T01:43:39.550Z,99531.94
2023-04-26T01:53:40.952Z,99531.00
2023-04-26T02:03:42.609Z,99529.19
2023-04-26T02:13:44.156Z,99529.06
2023-04-26T02:23:45.700Z,99523.06
2023-04-26T02:33:47.076Z,99532.09
2023-04-26T02:43:48.499Z,99525.63
2023-04-26T02:53:49.889Z,99521.44
2023-04-26T03:03:51.983Z,99512.44
2023-04-26T03:13:53.446Z,99511.94
2023-04-26T03:23:54.811Z,99508.13
2023-04-26T03:33:56.175Z,99501.97
2023-04-26T03:43:57.565Z,99504.13
2023-04-26T03:53:59.270Z,99503.50
2023-04-26T04:04:00.991Z,99504.84
2023-04-26T04:14:03.017Z,99507.22
2023-04-26T04:24:04.705Z,99508.94
2023-04-26T04:34:06.085Z,99518.69
2023-04-26T04:44:07.463Z,99527.31
2023-04-26T04:54:18.197Z,99532.38
2023-04-26T05:04:19.785Z,99525.16
2023-04-26T05:14:21.824Z,99548.09
2023-04-26T05:24:23.361Z,99560.84
2023-04-26T05:34:24.829Z,99564.19
2023-04-26T05:44:26.245Z,99563.44
2023-04-26T05:54:27.820Z,99575.03
2023-04-26T06:04:29.351Z,99583.19
2023-04-26T06:14:31.110Z,99592.53
2023-04-26T06:24:32.596Z,99592.22
2023-04-26T06:34:33.981Z,99606.50
2023-04-26T06:44:35.518Z,99610.41
2023-04-26T06:54:45.894Z,99618.84
2023-04-26T07:04:51.771Z,99604.75
2023-04-26T07:14:53.350Z,99604.69
2023-04-26T07:24:54.914Z,99608.72
2023-04-26T07:34:56.490Z,99612.59
2023-04-26T07:44:57.907Z,99606.22
2023-04-26T07:54:59.441Z,99604.94
2023-04-26T08:05:00.990Z,99615.06
2023-04-26T08:15:04.538Z,99618.16
2023-04-26T08:25:06.559Z,99598.63
2023-04-26T08:35:09.450Z,99609.84
2023-04-26T08:45:13.988Z,99601.53
2023-04-26T08:55:16.454Z,99611.06
2023-04-26T09:05:24.869Z,99607.53
2023-04-26T09:15:27.173Z,99613.16
2023-04-26T09:25:29.546Z,99610.56
2023-04-26T09:35:41.103Z,99611.50
2023-04-26T09:45:51.117Z,99594.25
2023-04-26T09:55:54.108Z,99599.66
2023-04-26T10:05:56.030Z,99583.69
2023-04-26T10:15:57.485Z,99572.88
2023-04-26T10:25:58.906Z,99573.28
2023-04-26T10:36:08.048Z,99567.28
2023-04-26T10:46:33.236Z,99565.41
2023-04-26T10:56:37.594Z,99563.75
2023-04-26T11:06:52.755Z,99561.69
2023-04-26T11:16:54.171Z,99558.78
2023-04-26T11:26:55.578Z,99538.66
2023-04-26T11:36:56.990Z,99543.84
2023-04-26T11:46:58.778Z,99547.16
2023-04-26T11:57:00.177Z,99538.44
2023-04-26T12:07:03.902Z,99532.41
2023-04-26T12:17:06.296Z,99543.19
2023-04-26T12:27:07.881Z,99545.03
2023-04-26T12:37:09.282Z,99538.97
2023-04-26T12:47:10.698Z,99541.25
2023-04-26T12:57:12.232Z,99531.47
2023-04-26T13:07:13.670Z,99513.63
2023-04-26T13:17:15.647Z,99520.03
2023-04-26T13:27:17.045Z,99522.50
2023-04-26T13:37:22.508Z,99534.88
2023-04-26T13:47:23.965Z,99527.56
2023-04-26T13:57:25.575Z,99516.53
2023-04-26T14:07:27.178Z,99521.25
2023-04-26T14:17:29.213Z,99515.38
2023-04-26T14:27:30.676Z,99505.81
2023-04-26T14:37:32.130Z,99505.78
2023-04-26T14:47:33.550Z,99494.16
2023-04-26T14:57:35.027Z,99504.50
2023-04-26T15:07:37.318Z,99502.59
2023-04-26T15:17:38.934Z,99489.31
2023-04-26T15:27:41.002Z,99486.63
2023-04-26T15:37:44.108Z,99483.69
2023-04-26T15:47:46.039Z,99477.03
2023-04-26T15:57:47.497Z,99463.94
2023-04-26T16:07:48.929Z,99468.63
2023-04-26T16:17:50.559Z,99472.72
2023-04-26T16:27:51.968Z,99470.56
2023-04-26T16:37:53.352Z,99475.06
2023-04-26T16:47:55.252Z,99458.44
2023-04-26T16:57:56.718Z,99463.44
2023-04-26T17:07:58.153Z,99462.56
2023-04-26T17:18:01.329Z,99475.09
2023-04-26T17:28:03.345Z,99472.81
2023-04-26T17:38:04.922Z,99474.84
2023-04-26T17:48:10.886Z,99485.47
2023-04-26T17:58:12.361Z,99486.47
2023-04-26T18:08:13.919Z,99498.00
2023-04-26T18:18:15.408Z,99497.94
2023-04-26T18:28:17.030Z,99490.66
2023-04-26T18:38:18.716Z,99504.19
2023-04-26T18:48:20.270Z,99511.13
2023-04-26T18:58:21.858Z,99513.91
2023-04-26T19:08:25.213Z,99524.38
2023-04-26T19:18:27.127Z,99541.41
2023-04-26T19:28:28.520Z,99549.84
2023-04-26T19:38:30.078Z,99559.66
2023-04-26T19:48:31.462Z,99562.72
2023-04-26T19:58:32.874Z,99560.22
2023-04-26T20:08:34.510Z,99577.53
2023-04-26T20:18:36.394Z,99579.38
2023-04-26T20:28:39.928Z,99587.78
2023-04-26T20:38:41.635Z,99586.31
2023-04-26T20:48:43.157Z,99586.47
2023-04-26T20:58:44.586Z,99591.59
2023-04-26T21:08:46.215Z,99572.59
2023-04-26T21:18:47.602Z,99566.78
2023-04-26T21:28:49.046Z,99575.38
2023-04-26T21:38:50.462Z,99581.59
2023-04-26T21:48:51.855Z,99593.34
2023-04-26T21:58:53.247Z,99582.31
2023-04-26T22:08:54.621Z,99582.31
2023-04-26T22:18:57.145Z,99595.94
2023-04-26T22:28:58.741Z,99598.31
2023-04-26T22:39:00.254Z,99594.34
2023-04-26T22:49:01.645Z,99595.53
2023-04-26T22:59:03.157Z,99605.63
2023-04-26T23:09:04.691Z,99609.84
2023-04-26T23:19:06.087Z,99617.25
2023-04-26T23:29:07.619Z,99624.81
2023-04-26T23:39:09.042Z,99612.63
2023-04-26T23:49:10.512Z,99614.13
2023-04-26T23:59:12.149Z,99622.88
